Time;durP1;ratioP1;P1;durP2;ratioP2;P2;SDS_P1;SDS_P2;PMS_P1;PMS_P2;Temp;Humidity;BMP_temperature;BMP_pressure;BME280_temperature;BME280_humidity;BME280_pressure;Samples;Min_cycle;Max_cycle;Signal;HPM_P1;HPM_P2
2023/03/08 00:00:17;;;;;;;1.50;0.95;;;;;;;20.49;42.05;95061.44;10457684;28;20060;-48
2023/03/08 00:05:49;;;;;;;1.23;0.77;;;;;;;20.47;41.99;95059.09;10457774;28;20075;-50
2023/03/08 00:11:11;;;;;;;1.73;1.00;;;;;;;20.45;42.01;95057.94;10457308;28;20110;-51
2023/03/08 00:16:31;;;;;;;1.05;0.90;;;;;;;20.44;42.00;95078.75;10456891;28;20060;-52
2023/03/08 00:21:50;;;;;;;1.27;0.75;;;;;;;20.43;41.99;95081.88;10457076;28;20057;-50
2023/03/08 00:27:09;;;;;;;1.05;0.80;;;;;;;20.41;42.09;95089.56;10470023;28;20041;-50
2023/03/08 00:32:29;;;;;;;1.45;0.90;;;;;;;20.40;41.96;95093.41;10469879;28;20041;-50
2023/03/08 00:37:48;;;;;;;1.48;0.90;;;;;;;20.38;42.00;95104.59;10469938;28;20041;-50
2023/03/08 00:43:09;;;;;;;1.80;0.90;;;;;;;20.37;41.92;95105.75;10456468;28;20118;-52
2023/03/08 00:48:28;;;;;;;1.33;0.95;;;;;;;20.34;42.01;95109.19;10456604;28;20056;-52
2023/03/08 00:53:48;;;;;;;1.50;0.80;;;;;;;20.32;42.06;95120.38;10456423;28;20060;-51
2023/03/08 00:59:07;;;;;;;1.00;0.90;;;;;;;20.30;42.09;95127.31;10456391;28;20390;-51
2023/03/08 01:04:27;;;;;;;1.55;1.00;;;;;;;20.30;42.00;95121.91;10440552;28;20049;-52
2023/03/08 01:09:46;;;;;;;1.13;0.77;;;;;;;20.28;42.09;95127.66;10441127;28;20059;-52
2023/03/08 01:15:07;;;;;;;1.00;0.90;;;;;;;20.26;42.07;95127.25;10455791;28;20053;-51
2023/03/08 01:20:27;;;;;;;1.10;0.88;;;;;;;20.25;41.99;95119.53;10455742;28;20049;-50
2023/03/08 01:25:46;;;;;;;0.65;0.60;;;;;;;20.23;42.06;95121.81;10457616;28;20060;-49
2023/03/08 01:31:08;;;;;;;0.82;0.80;;;;;;;20.21;42.12;95124.91;10463558;28;20061;-50
2023/03/08 01:36:29;;;;;;;0.77;0.77;;;;;;;20.19;42.01;95127.19;10434074;28;20053;-51
2023/03/08 01:41:49;;;;;;;1.05;0.88;;;;;;;20.18;42.07;95127.56;10462648;28;20053;-50
2023/03/08 01:47:17;;;;;;;1.20;0.80;;;;;;;20.17;41.99;95126.78;10463273;28;20072;-51
2023/03/08 01:52:57;;;;;;;1.10;0.77;;;;;;;20.15;41.96;95120.97;10435984;28;20077;-51
2023/03/08 01:58:17;;;;;;;1.08;0.70;;;;;;;20.11;42.02;95120.91;10461803;28;20045;-50
2023/03/08 02:03:36;;;;;;;0.68;0.65;;;;;;;20.11;42.09;95125.53;10433088;28;20056;-50
2023/03/08 02:08:57;;;;;;;0.75;0.55;;;;;;;20.09;42.05;95117.81;10447084;28;20057;-51
2023/03/08 02:14:17;;;;;;;0.60;0.60;;;;;;;20.08;42.10;95115.47;10461666;28;20060;-52
2023/03/08 02:20:05;;;;;;;0.80;0.70;;;;;;;20.06;41.90;95125.88;10462175;28;20055;-51
2023/03/08 02:25:25;;;;;;;1.17;0.85;;;;;;;20.04;41.96;95130.88;10459724;28;20481;-49
2023/03/08 02:30:45;;;;;;;0.82;0.70;;;;;;;20.02;42.08;95133.94;10461791;28;20048;-50
2023/03/08 02:36:06;;;;;;;0.88;0.70;;;;;;;20.02;42.04;95135.88;10460789;28;20049;-50
2023/03/08 02:41:26;;;;;;;0.75;0.70;;;;;;;19.99;42.10;95144.69;10460721;28;20056;-50
2023/03/08 02:46:46;;;;;;;0.80;0.80;;;;;;;19.97;42.02;95134.25;10474081;28;20053;-51
2023/03/08 02:52:06;;;;;;;0.60;0.50;;;;;;;19.97;41.96;95130.78;10445494;28;20069;-51
2023/03/08 02:57:26;;;;;;;1.60;0.75;;;;;;;19.94;41.94;95127.66;10445339;28;20055;-50
2023/03/08 03:02:47;;;;;;;0.82;0.68;;;;;;;19.93;42.06;95128.81;10458946;28;20037;-50
2023/03/08 03:08:07;;;;;;;0.57;0.57;;;;;;;19.91;41.92;95135.72;10459783;28;20049;-52
2023/03/08 03:13:27;;;;;;;1.08;0.80;;;;;;;19.90;41.99;95131.47;10459868;28;20056;-51
2023/03/08 03:18:47;;;;;;;1.02;0.70;;;;;;;19.88;42.02;95137.22;10459963;28;20072;-49
2023/03/08 03:24:06;;;;;;;0.75;0.60;;;;;;;19.85;41.93;95127.16;10444245;28;20060;-51
2023/03/08 03:29:36;;;;;;;0.60;0.60;;;;;;;19.85;42.09;95123.66;10457417;28;20045;-52
2023/03/08 03:35:05;;;;;;;1.20;0.50;;;;;;;19.83;42.03;95142.19;10443761;28;20045;-51
2023/03/08 03:40:24;;;;;;;0.55;0.55;;;;;;;19.81;41.93;95144.47;10472166;28;20550;-50
2023/03/08 03:45:57;;;;;;;0.60;0.60;;;;;;;19.79;42.06;95162.97;10442741;28;20075;-50
2023/03/08 03:51:19;;;;;;;0.60;0.60;;;;;;;19.77;41.99;95160.63;10448458;28;20063;-51
2023/03/08 03:56:43;;;;;;;0.60;0.60;;;;;;;19.77;42.01;95157.16;10443514;28;20045;-48
2023/03/08 04:02:03;;;;;;;0.68;0.50;;;;;;;19.75;41.90;95162.91;10457897;28;20053;-49
2023/03/08 04:07:37;;;;;;;0.95;0.80;;;;;;;19.72;42.12;95163.66;10442778;28;20053;-50
2023/03/08 04:12:58;;;;;;;0.85;0.70;;;;;;;19.71;42.04;95164.75;10442834;28;20076;-48
2023/03/08 04:18:19;;;;;;;0.68;0.52;;;;;;;19.69;42.06;95162.41;10456415;28;20543;-50
2023/03/08 04:23:40;;;;;;;0.60;0.55;;;;;;;19.68;41.98;95162.78;10441815;28;20049;-50
2023/03/08 04:29:04;;;;;;;0.50;0.50;;;;;;;19.65;42.05;95150.00;10455236;28;20481;-50
2023/03/08 04:34:24;;;;;;;0.50;0.50;;;;;;;19.64;42.07;95157.34;10441920;28;20053;-51
2023/03/08 04:39:46;;;;;;;0.73;0.68;;;;;;;19.62;42.02;95158.81;10441035;28;20061;-50
2023/03/08 04:45:07;;;;;;;0.50;0.50;;;;;;;19.61;42.03;95163.47;10456356;28;20064;-50
2023/03/08 04:50:27;;;;;;;0.50;0.50;;;;;;;19.59;41.96;95156.88;10440678;28;20060;-51
2023/03/08 04:55:50;;;;;;;0.60;0.60;;;;;;;19.58;41.94;95153.38;10441285;28;20057;-50
2023/03/08 05:01:17;;;;;;;0.60;0.60;;;;;;;19.56;42.02;95169.16;10443343;28;20072;-51
2023/03/08 05:06:36;;;;;;;0.60;0.60;;;;;;;19.54;41.93;95174.94;10478023;28;20045;-51
2023/03/08 05:11:58;;;;;;;0.63;0.52;;;;;;;19.54;42.00;95182.25;10462451;28;20458;-48
2023/03/08 05:17:20;;;;;;;0.65;0.57;;;;;;;19.52;41.97;95152.94;10449143;28;20045;-51
2023/03/08 05:22:40;;;;;;;0.60;0.60;;;;;;;19.51;42.15;95154.06;10464237;28;20052;-51
2023/03/08 05:28:01;;;;;;;0.50;0.50;;;;;;;19.50;42.00;95168.72;10448661;28;20041;-51
2023/03/08 05:33:20;;;;;;;0.50;0.50;;;;;;;19.50;42.07;95168.72;10476800;28;20489;-51
2023/03/08 05:38:40;;;;;;;0.50;0.50;;;;;;;19.51;42.16;95174.88;10463626;28;20053;-50
2023/03/08 05:44:02;;;;;;;0.60;0.60;;;;;;;19.51;42.18;95181.06;10463128;28;20119;-51
2023/03/08 05:49:25;;;;;;;1.92;0.60;;;;;;;19.52;42.00;95188.03;10447718;28;20057;-50
2023/03/08 05:54:44;;;;;;;0.50;0.50;;;;;;;19.53;42.07;95194.97;10460824;28;20048;-48
2023/03/08 06:00:09;;;;;;;1.15;0.57;;;;;;;19.54;42.25;95204.66;10461985;28;20064;-51
2023/03/08 06:05:35;;;;;;;0.50;0.50;;;;;;;19.59;42.47;95208.19;10462736;28;20056;-50
2023/03/08 06:10:55;;;;;;;0.65;0.50;;;;;;;19.61;42.50;95208.59;10446749;28;20107;-50
2023/03/08 06:16:15;;;;;;;1.70;0.45;;;;;;;19.63;42.63;95209.03;10461951;28;20052;-50
2023/03/08 06:21:35;;;;;;;0.57;0.57;;;;;;;19.64;42.60;95195.16;10460178;28;20047;-50
2023/03/08 06:26:56;;;;;;;1.08;0.60;;;;;;;19.66;42.43;95197.47;10446078;28;20053;-50
2023/03/08 06:32:17;;;;;;;1.02;0.63;;;;;;;19.68;42.37;95206.81;10445861;28;20064;-51
2023/03/08 06:37:36;;;;;;;2.20;0.50;;;;;;;19.71;42.29;95194.47;10460931;28;20057;-50
2023/03/08 06:42:59;;;;;;;0.57;0.57;;;;;;;19.73;42.07;95184.13;10446265;28;20057;-50
2023/03/08 06:48:19;;;;;;;1.13;0.60;;;;;;;19.76;42.12;95186.09;10460741;28;20049;-50
2023/03/08 06:53:39;;;;;;;0.82;0.57;;;;;;;19.77;42.19;95189.56;10445445;28;20102;-50
2023/03/08 06:58:59;;;;;;;2.03;0.70;;;;;;;19.80;42.18;95210.44;10445119;28;20049;-51
2023/03/08 07:04:19;;;;;;;0.75;0.65;;;;;;;19.82;42.19;95221.69;10460031;28;20095;-51
2023/03/08 07:09:38;;;;;;;1.05;0.70;;;;;;;19.83;42.21;95207.81;10459291;28;20049;-49
2023/03/08 07:14:58;;;;;;;0.60;0.52;;;;;;;19.86;42.23;95209.00;10472857;28;20454;-50
2023/03/08 07:20:19;;;;;;;0.40;0.40;;;;;;;19.88;42.33;95199.38;10459337;28;20059;-50
2023/03/08 07:25:39;;;;;;;1.15;0.63;;;;;;;19.92;42.30;95215.66;10458318;28;20060;-50
2023/03/08 07:30:58;;;;;;;0.93;0.60;;;;;;;19.95;42.41;95214.91;10458944;28;20060;-51
2023/03/08 07:36:17;;;;;;;0.50;0.50;;;;;;;19.96;42.25;95216.50;10458964;28;20076;-52
2023/03/08 07:41:37;;;;;;;1.13;0.68;;;;;;;20.00;42.33;95213.84;10471712;28;20041;-52
2023/03/08 07:46:56;;;;;;;0.50;0.50;;;;;;;20.02;42.26;95219.66;10458153;28;20052;-50
2023/03/08 07:52:15;;;;;;;0.45;0.45;;;;;;;20.05;42.31;95216.22;10461210;28;20049;-51
2023/03/08 07:57:35;;;;;;;0.63;0.40;;;;;;;20.07;42.23;95222.03;10457792;28;20053;-51
2023/03/08 08:02:54;;;;;;;0.50;0.50;;;;;;;20.09;42.20;95214.34;10457719;28;20056;-51
2023/03/08 08:08:13;;;;;;;0.93;0.52;;;;;;;20.14;42.43;95233.72;10457897;28;20055;-50
2023/03/08 08:13:33;;;;;;;0.50;0.50;;;;;;;20.18;42.29;95228.38;10457254;28;20053;-50
2023/03/08 08:18:53;;;;;;;0.50;0.50;;;;;;;20.20;42.51;95223.38;10470801;28;20099;-51
2023/03/08 08:24:12;;;;;;;0.50;0.50;;;;;;;20.22;42.46;95229.19;10456785;28;20497;-52
2023/03/08 08:29:31;;;;;;;0.60;0.60;;;;;;;20.27;42.46;95231.59;10456994;28;20057;-50
2023/03/08 08:34:51;;;;;;;0.60;0.60;;;;;;;20.28;42.34;95218.84;10456462;28;20049;-52
2023/03/08 08:40:11;;;;;;;1.02;0.50;;;;;;;20.30;42.49;95192.97;10470367;28;20056;-51
2023/03/08 08:45:30;;;;;;;1.17;0.60;;;;;;;20.33;42.43;95211.19;10456664;28;20049;-51
2023/03/08 08:50:50;;;;;;;0.60;0.60;;;;;;;20.37;42.59;95195.00;10455961;28;20053;-50
2023/03/08 08:56:14;;;;;;;1.23;0.50;;;;;;;20.40;42.64;95194.25;10456755;28;20053;-49
2023/03/08 09:01:35;;;;;;;0.50;0.50;;;;;;;20.43;42.52;95200.88;10456322;28;20417;-49
2023/03/08 09:06:55;;;;;;;1.40;0.50;;;;;;;20.44;42.37;95184.25;10469314;28;20049;-51
2023/03/08 09:12:14;;;;;;;1.65;0.60;;;;;;;20.47;42.52;95190.88;10469122;28;20048;-49
2023/03/08 09:17:34;;;;;;;0.47;0.47;;;;;;;20.50;42.41;95190.13;10455955;28;20053;-51
2023/03/08 09:22:54;;;;;;;0.57;0.50;;;;;;;20.53;42.44;95178.56;10469093;28;20052;-50
2023/03/08 09:28:14;;;;;;;0.50;0.50;;;;;;;20.55;42.41;95178.97;10455032;28;20052;-50
2023/03/08 09:33:33;;;;;;;0.93;0.57;;;;;;;20.57;42.30;95157.75;10455828;28;20052;-50
2023/03/08 09:38:53;;;;;;;0.50;0.50;;;;;;;20.61;42.40;95157.81;10455611;28;20045;-51
2023/03/08 09:45:03;;;;;;;0.95;0.50;;;;;;;20.62;42.39;95153.94;10455401;28;20049;-50
2023/03/08 09:50:43;;;;;;;0.40;0.40;;;;;;;20.64;42.29;95147.03;10262967;28;20098;-48
2023/03/08 09:56:27;;;;;;;1.13;0.55;;;;;;;20.67;41.96;95129.28;10455151;28;20492;-51
2023/03/08 10:02:05;;;;;;;2.50;0.40;;;;;;;20.69;41.80;95127.75;10447092;28;20068;-53
2023/03/08 10:07:24;;;;;;;2.72;0.60;;;;;;;20.71;41.57;95109.22;10447515;28;20071;-48
2023/03/08 10:12:46;;;;;;;1.17;0.50;;;;;;;20.75;41.79;95111.94;10461989;28;20049;-50
2023/03/08 10:18:32;;;;;;;2.08;0.50;;;;;;;20.78;41.54;95105.00;10462189;28;20060;-50
2023/03/08 10:24:16;;;;;;;0.45;0.43;;;;;;;20.79;41.58;95112.00;10447116;28;20110;-51
2023/03/08 10:29:36;;;;;;;1.63;0.50;;;;;;;20.81;41.62;95101.56;10446457;28;20214;-51
2023/03/08 10:35:03;;;;;;;1.27;0.50;;;;;;;20.84;41.49;95081.88;10460477;28;20045;-49
2023/03/08 10:40:23;;;;;;;1.27;0.52;;;;;;;20.85;41.52;95067.97;10461301;28;20053;-49
2023/03/08 10:45:43;;;;;;;1.98;0.55;;;;;;;20.84;41.28;95061.00;10461092;28;20049;-49
2023/03/08 10:51:05;;;;;;;1.40;1.15;;;;;;;20.90;38.22;95050.63;10460308;28;20057;-48
2023/03/08 10:56:24;;;;;;;3.17;1.33;;;;;;;20.97;36.74;95056.06;10460774;28;20056;-48
2023/03/08 11:01:52;;;;;;;7.93;1.60;;;;;;;21.01;34.77;95050.69;10459715;28;20501;-49
2023/03/08 11:07:22;;;;;;;2.42;1.70;;;;;;;21.02;33.61;95020.53;10460129;28;20163;-48
2023/03/08 11:12:43;;;;;;;2.58;1.83;;;;;;;21.02;32.89;95025.19;10459816;28;20052;-49
2023/03/08 11:18:18;;;;;;;3.67;1.90;;;;;;;21.01;31.13;95019.00;10472768;28;20041;-50
2023/03/08 11:23:48;;;;;;;2.10;1.80;;;;;;;21.01;32.41;95002.75;10444503;28;20056;-48
2023/03/08 11:29:29;;;;;;;3.92;1.85;;;;;;;21.00;33.70;94989.59;10444585;28;20053;-49
2023/03/08 11:35:00;;;;;;;4.03;1.80;;;;;;;20.93;34.40;94990.28;10458858;28;20053;-49
2023/03/08 11:40:27;;;;;;;2.63;1.75;;;;;;;20.90;34.87;94972.13;10458579;28;20386;-48
2023/03/08 11:45:49;;;;;;;1.75;1.50;;;;;;;20.87;35.27;94962.81;10443334;28;20072;-50
2023/03/08 11:51:32;;;;;;;3.00;1.30;;;;;;;20.86;35.68;94955.09;10459264;28;20053;-49
2023/03/08 11:57:13;;;;;;;2.95;1.40;;;;;;;20.85;36.03;94926.44;10442494;28;20057;-51
2023/03/08 12:02:36;;;;;;;2.60;1.30;;;;;;;20.83;36.43;94909.81;10457552;28;20056;-49
2023/03/08 12:08:30;;;;;;;2.30;1.50;;;;;;;20.81;37.22;94907.47;10442818;28;20080;-52
2023/03/08 12:14:03;;;;;;;2.85;1.50;;;;;;;20.80;37.60;94883.53;10457280;28;20132;-50
2023/03/08 12:19:37;;;;;;;3.92;1.50;;;;;;;20.80;38.00;94876.19;10442268;28;20053;-50
2023/03/08 12:25:03;;;;;;;2.58;1.33;;;;;;;20.79;38.09;94871.13;10441744;28;20053;-50
2023/03/08 12:30:41;;;;;;;1.38;1.20;;;;;;;20.77;38.71;94868.81;10441929;28;20408;-52
2023/03/08 12:36:04;;;;;;;2.90;1.30;;;;;;;20.74;39.03;94870.34;10469896;28;20045;-52
2023/03/08 12:41:25;;;;;;;3.10;1.38;;;;;;;20.74;39.30;94870.34;10456771;28;20049;-50
2023/03/08 12:46:53;;;;;;;1.40;1.30;;;;;;;20.73;39.47;94859.91;10456336;28;20049;-51
2023/03/08 12:52:18;;;;;;;2.73;1.30;;;;;;;20.73;39.82;94851.78;10455925;28;20065;-51
2023/03/08 12:57:45;;;;;;;1.73;1.38;;;;;;;20.70;40.00;94845.19;10456310;28;20049;-50
2023/03/08 13:03:11;;;;;;;4.32;1.30;;;;;;;20.68;40.47;94847.50;10441197;28;20057;-52
2023/03/08 13:08:35;;;;;;;2.28;1.10;;;;;;;20.68;40.58;94844.00;10455365;28;20045;-47
2023/03/08 13:13:56;;;;;;;1.85;1.20;;;;;;;20.67;40.81;94840.53;10455819;28;20053;-50
2023/03/08 13:19:27;;;;;;;2.03;1.20;;;;;;;20.66;41.33;94838.19;10455858;28;20057;-48
2023/03/08 13:25:00;;;;;;;2.17;1.20;;;;;;;20.64;41.24;94833.19;10447298;28;20072;-51
2023/03/08 13:30:27;;;;;;;2.75;1.30;;;;;;;20.63;41.37;94815.38;10448706;28;20052;-49
2023/03/08 13:36:14;;;;;;;1.42;1.33;;;;;;;20.63;41.97;94809.97;10448477;28;20060;-49
2023/03/08 13:41:39;;;;;;;1.30;1.20;;;;;;;20.61;41.74;94804.19;10448321;28;20049;-50
2023/03/08 13:47:20;;;;;;;2.80;1.17;;;;;;;20.60;42.27;94789.13;10463091;28;20045;-49
2023/03/08 13:52:40;;;;;;;1.50;1.25;;;;;;;20.59;42.29;94770.53;10462243;28;20068;-51
2023/03/08 13:58:00;;;;;;;1.40;1.08;;;;;;;20.57;42.38;94760.06;10447428;28;20056;-52
2023/03/08 14:03:19;;;;;;;1.90;1.13;;;;;;;20.55;42.63;94748.84;10462451;28;20072;-49
2023/03/08 14:08:39;;;;;;;2.03;1.27;;;;;;;20.55;42.65;94740.75;10462200;28;20049;-50
2023/03/08 14:14:01;;;;;;;1.50;1.02;;;;;;;20.53;42.69;94751.16;10462253;28;20118;-51
2023/03/08 14:19:30;;;;;;;1.17;0.98;;;;;;;20.51;42.88;94745.38;10447323;28;20061;-51
2023/03/08 14:24:54;;;;;;;1.05;0.95;;;;;;;20.49;43.07;94734.91;10446233;28;20045;-51
2023/03/08 14:30:17;;;;;;;1.20;1.00;;;;;;;20.48;43.13;94717.16;10461477;28;20057;-51
2023/03/08 14:35:39;;;;;;;2.22;1.23;;;;;;;20.48;42.99;94708.25;10460790;28;20053;-53
2023/03/08 14:41:02;;;;;;;1.23;1.10;;;;;;;20.43;43.33;94704.00;10446535;28;20053;-52
2023/03/08 14:46:22;;;;;;;0.90;0.90;;;;;;;20.44;43.55;94715.56;10458970;28;20051;-52
2023/03/08 14:51:42;;;;;;;1.85;1.20;;;;;;;20.42;43.69;94701.66;10459917;28;20065;-52
2023/03/08 14:57:20;;;;;;;1.92;1.00;;;;;;;20.41;43.87;94710.94;10473691;28;20409;-50
2023/03/08 15:02:40;;;;;;;2.40;1.25;;;;;;;20.38;43.83;94693.53;10445311;28;20053;-50
2023/03/08 15:08:00;;;;;;;0.93;0.93;;;;;;;20.38;43.84;94681.94;10460083;28;20049;-50
2023/03/08 15:13:22;;;;;;;1.60;1.17;;;;;;;20.35;43.75;94686.19;10459940;28;20053;-51
2023/03/08 15:18:41;;;;;;;1.65;1.20;;;;;;;20.34;43.83;94685.41;10459148;28;20045;-51
2023/03/08 15:24:01;;;;;;;3.33;2.85;;;;;;;20.26;42.16;94675.72;10459127;28;20049;-51
2023/03/08 15:29:32;;;;;;;1.88;1.70;;;;;;;20.10;41.20;94670.63;10459361;28;20056;-49
2023/03/08 15:34:51;;;;;;;1.77;1.60;;;;;;;20.18;42.62;94674.13;10443883;28;20052;-50
2023/03/08 15:40:15;;;;;;;1.58;1.40;;;;;;;20.22;42.84;94669.50;10458687;28;20057;-50
2023/03/08 15:45:35;;;;;;;3.85;1.38;;;;;;;20.26;43.38;94670.31;10457071;28;20049;-50
2023/03/08 15:50:56;;;;;;;1.35;1.20;;;;;;;20.29;43.70;94666.84;10465436;28;20057;-50
2023/03/08 15:56:16;;;;;;;2.88;1.30;;;;;;;20.30;43.81;94656.81;10458056;28;20053;-51
2023/03/08 16:01:35;;;;;;;2.55;1.60;;;;;;;20.31;43.97;94661.06;10457834;28;20052;-53
2023/03/08 16:06:55;;;;;;;3.63;1.50;;;;;;;20.32;44.18;94649.84;10457371;28;20052;-54
2023/03/08 16:12:14;;;;;;;1.85;1.17;;;;;;;20.33;44.36;94656.81;10470807;28;20048;-52
2023/03/08 16:17:34;;;;;;;3.55;1.50;;;;;;;20.35;44.45;94646.41;10470624;28;20036;-50
2023/03/08 16:22:54;;;;;;;3.05;1.17;;;;;;;20.39;44.74;94645.66;10456346;28;20527;-51
2023/03/08 16:28:14;;;;;;;1.10;1.00;;;;;;;20.39;44.87;94638.31;10457066;28;20049;-51
2023/03/08 16:33:34;;;;;;;1.30;1.20;;;;;;;20.42;44.88;94631.34;10456879;28;20064;-51
2023/03/08 16:38:53;;;;;;;6.93;1.40;;;;;;;20.43;44.96;94624.78;10456520;28;20053;-51
2023/03/08 16:44:22;;;;;;;2.95;1.25;;;;;;;20.45;44.58;94625.19;10456811;28;20053;-50
2023/03/08 16:49:41;;;;;;;1.40;1.30;;;;;;;20.48;44.74;94621.69;10456124;28;20072;-50
2023/03/08 16:55:01;;;;;;;1.33;1.23;;;;;;;20.48;44.69;94614.38;10470718;28;20059;-53
2023/03/08 17:00:21;;;;;;;1.70;1.50;;;;;;;20.49;44.76;94624.03;10469519;28;20516;-51
2023/03/08 17:05:44;;;;;;;1.40;1.30;;;;;;;20.53;44.75;94621.34;10469823;28;20098;-53
2023/03/08 17:11:04;;;;;;;1.50;1.40;;;;;;;20.53;44.71;94600.47;10469988;28;20415;-50
2023/03/08 17:16:27;;;;;;;2.67;1.30;;;;;;;20.57;44.97;94605.13;10469736;28;20044;-49
2023/03/08 17:21:49;;;;;;;1.65;1.13;;;;;;;20.59;44.93;94609.00;10469714;28;20057;-53
2023/03/08 17:27:08;;;;;;;2.83;1.20;;;;;;;20.61;44.90;94601.28;10469473;28;20049;-52
2023/03/08 17:32:30;;;;;;;1.65;1.45;;;;;;;20.63;44.72;94593.56;10469343;28;20060;-50
2023/03/08 17:37:50;;;;;;;1.50;1.10;;;;;;;20.66;45.00;94584.69;10482699;28;20045;-47
2023/03/08 17:43:09;;;;;;;3.60;1.13;;;;;;;20.68;44.76;94579.66;10482714;28;20040;-50
2023/03/08 17:48:32;;;;;;;2.35;1.50;;;;;;;20.70;45.10;94585.47;10482282;28;20489;-51
2023/03/08 17:53:52;;;;;;;2.42;1.50;;;;;;;20.74;45.26;94580.06;10482458;28;20036;-48
2023/03/08 17:59:13;;;;;;;4.00;1.60;;;;;;;20.76;45.63;94579.66;10468881;28;20049;-50
2023/03/08 18:04:33;;;;;;;3.58;1.33;;;;;;;20.78;45.44;94571.91;10468986;28;20110;-52
2023/03/08 18:09:52;;;;;;;3.25;1.42;;;;;;;20.78;45.42;94566.50;10476709;28;20045;-50
2023/03/08 18:15:13;;;;;;;4.18;1.73;;;;;;;20.81;45.43;94576.56;10475125;28;20091;-50
2023/03/08 18:20:33;;;;;;;2.67;1.60;;;;;;;20.82;45.66;94583.53;10446998;28;20053;-49
2023/03/08 18:25:53;;;;;;;5.20;1.60;;;;;;;20.83;45.73;94579.66;10461629;28;20086;-50
2023/03/08 18:31:19;;;;;;;3.08;1.60;;;;;;;20.84;45.77;94581.22;10461695;28;20056;-51
2023/03/08 18:36:39;;;;;;;2.10;1.40;;;;;;;20.86;45.66;94578.91;10474716;28;20041;-50
2023/03/08 18:42:01;;;;;;;6.18;1.52;;;;;;;20.89;45.66;94594.34;10461062;28;20061;-50
2023/03/08 18:47:20;;;;;;;1.45;1.20;;;;;;;20.90;45.67;94579.66;10474335;28;20045;-52
2023/03/08 18:52:39;;;;;;;2.45;1.40;;;;;;;20.92;45.86;94577.34;10460220;28;20061;-50
2023/03/08 18:57:59;;;;;;;3.33;1.42;;;;;;;20.95;45.73;94581.97;10460702;28;20049;-51
2023/03/08 19:03:18;;;;;;;2.22;1.42;;;;;;;20.96;45.75;94580.06;10473450;28;20037;-48
2023/03/08 19:08:38;;;;;;;2.00;1.25;;;;;;;20.96;45.90;94580.84;10459877;28;20060;-51
2023/03/08 19:13:59;;;;;;;2.25;1.30;;;;;;;20.98;45.91;94589.34;10459927;28;20052;-49
2023/03/08 19:19:18;;;;;;;2.47;1.30;;;;;;;20.98;46.08;94594.75;10458351;28;20045;-48
2023/03/08 19:24:37;;;;;;;2.40;1.23;;;;;;;20.99;45.89;94585.47;10459637;28;20060;-50
2023/03/08 19:29:57;;;;;;;1.48;1.20;;;;;;;21.00;45.87;94583.53;10459601;28;20151;-49
2023/03/08 19:35:16;;;;;;;2.80;1.30;;;;;;;21.00;46.02;94584.31;10458143;28;20469;-50
2023/03/08 19:40:37;;;;;;;2.22;1.10;;;;;;;20.99;45.89;94577.34;10459073;28;20056;-49
2023/03/08 19:45:59;;;;;;;1.65;1.15;;;;;;;20.99;45.99;94577.34;10471842;28;20492;-49
2023/03/08 19:51:19;;;;;;;1.50;1.20;;;;;;;20.99;46.06;94580.03;10458230;28;20065;-49
2023/03/08 19:56:38;;;;;;;3.47;1.20;;;;;;;20.99;45.86;94582.75;10458039;28;20057;-50
2023/03/08 20:01:58;;;;;;;1.42;1.33;;;;;;;20.99;46.34;94573.88;10458085;28;20079;-48
2023/03/08 20:07:17;;;;;;;1.33;1.10;;;;;;;20.97;46.02;94574.25;10457176;28;20110;-50
2023/03/08 20:12:37;;;;;;;1.27;1.13;;;;;;;20.98;45.99;94581.22;10457694;28;20056;-49
2023/03/08 20:17:57;;;;;;;1.63;1.10;;;;;;;20.97;45.77;94576.94;10470352;28;20049;-47
2023/03/08 20:23:16;;;;;;;1.67;1.00;;;;;;;20.97;45.99;94560.72;10457097;28;20053;-48
2023/03/08 20:28:36;;;;;;;1.88;1.20;;;;;;;20.96;45.88;94553.75;10456999;28;20099;-48
2023/03/08 20:33:56;;;;;;;2.00;1.10;;;;;;;20.95;45.73;94560.31;10455995;28;20493;-50
2023/03/08 20:39:17;;;;;;;2.10;1.10;;;;;;;20.94;45.92;94569.63;10456775;28;20056;-50
2023/03/08 20:44:36;;;;;;;2.00;1.30;;;;;;;20.94;45.84;94554.16;10456946;28;20052;-48
2023/03/08 20:49:55;;;;;;;1.65;1.00;;;;;;;20.93;45.86;94555.31;10456606;28;20401;-49
2023/03/08 20:55:15;;;;;;;3.15;0.90;;;;;;;20.92;45.74;94556.47;10456065;28;20053;-50
2023/03/08 21:00:34;;;;;;;2.40;0.98;;;;;;;20.90;46.02;94558.78;10456377;28;20080;-49
2023/03/08 21:05:54;;;;;;;2.97;1.20;;;;;;;20.89;45.98;94573.47;10456066;28;20060;-51
2023/03/08 21:11:14;;;;;;;1.67;0.95;;;;;;;20.87;45.96;94559.56;10469314;28;20044;-49
2023/03/08 21:16:34;;;;;;;2.20;1.10;;;;;;;20.87;46.11;94570.38;10469168;28;20116;-49
2023/03/08 21:21:54;;;;;;;1.83;1.20;;;;;;;20.86;46.07;94568.84;10455857;28;20061;-49
2023/03/08 21:27:13;;;;;;;2.85;1.10;;;;;;;20.85;46.12;94570.00;10456170;28;20136;-49
2023/03/08 21:32:33;;;;;;;1.75;0.90;;;;;;;20.82;46.33;94568.06;10469620;28;20481;-50
2023/03/08 21:37:53;;;;;;;2.25;1.23;;;;;;;20.82;46.18;94557.25;10469149;28;20049;-49
2023/03/08 21:43:12;;;;;;;3.58;1.10;;;;;;;20.82;46.08;94551.06;10457741;28;20408;-47
2023/03/08 21:48:31;;;;;;;2.45;1.10;;;;;;;20.79;46.22;94541.00;10476580;28;20475;-50
2023/03/08 21:53:51;;;;;;;1.55;0.95;;;;;;;20.78;46.12;94531.31;10461399;28;20394;-48
2023/03/08 21:59:11;;;;;;;2.20;1.05;;;;;;;20.76;46.16;94536.34;10462699;28;20053;-49
2023/03/08 22:04:31;;;;;;;3.53;1.20;;;;;;;20.74;46.16;94532.13;10461814;28;20362;-48
2023/03/08 22:09:51;;;;;;;1.77;1.30;;;;;;;20.73;46.16;94527.84;10475824;28;20044;-50
2023/03/08 22:15:11;;;;;;;2.03;1.10;;;;;;;20.71;46.21;94527.47;10475605;28;20060;-51
2023/03/08 22:20:30;;;;;;;1.85;1.10;;;;;;;20.70;46.32;94520.53;10462036;28;20049;-50
2023/03/08 22:25:50;;;;;;;1.85;1.30;;;;;;;20.68;46.29;94517.44;10461840;28;20048;-49
2023/03/08 22:31:18;;;;;;;1.13;0.90;;;;;;;20.68;46.25;94519.34;10475270;28;20041;-49
2023/03/08 22:36:37;;;;;;;1.55;0.95;;;;;;;20.66;46.34;94508.13;10461440;28;20053;-48
2023/03/08 22:41:57;;;;;;;3.17;1.15;;;;;;;20.65;46.43;94514.72;10460950;28;20053;-48
2023/03/08 22:47:16;;;;;;;1.10;0.82;;;;;;;20.63;46.32;94504.28;10460877;28;20052;-50
2023/03/08 22:52:36;;;;;;;1.05;0.90;;;;;;;20.62;46.26;94504.66;10460496;28;20520;-49
2023/03/08 22:57:55;;;;;;;2.58;0.90;;;;;;;20.60;46.42;94506.97;10460480;28;20052;-50
2023/03/08 23:03:14;;;;;;;1.30;1.00;;;;;;;20.59;46.35;94500.00;10474097;28;20087;-49
2023/03/08 23:08:33;;;;;;;1.52;1.00;;;;;;;20.58;46.45;94503.84;10460244;28;20071;-50
2023/03/08 23:13:53;;;;;;;1.58;0.90;;;;;;;20.56;46.53;94506.94;10460238;28;20053;-49
2023/03/08 23:19:15;;;;;;;1.98;0.98;;;;;;;20.55;46.46;94513.53;10459005;28;20500;-48
2023/03/08 23:24:35;;;;;;;2.60;0.90;;;;;;;20.52;46.47;94501.56;10472814;28;20095;-50
2023/03/08 23:29:55;;;;;;;1.30;0.80;;;;;;;20.51;46.31;94504.66;10472630;28;20440;-49
2023/03/08 23:35:14;;;;;;;1.35;1.00;;;;;;;20.51;46.31;94499.22;10458923;28;20061;-47
2023/03/08 23:40:38;;;;;;;2.55;1.10;;;;;;;20.49;46.17;94502.31;10472310;28;20044;-49
2023/03/08 23:45:58;;;;;;;1.65;0.90;;;;;;;20.47;46.36;94506.56;10458506;28;20052;-48
2023/03/08 23:51:19;;;;;;;1.20;0.95;;;;;;;20.46;46.31;94505.00;10459739;28;20053;-50
2023/03/08 23:56:39;;;;;;;1.75;0.90;;;;;;;20.43;46.40;94498.44;10458607;28;20049;-50
